sensor_id;sensor_type;location;lat;lon;timestamp;P1;durP1;ratioP1;P2;durP2;ratioP2
14030;SDS011;7090;49.436;8.490;2022-11-12T00:00:21;0.57;;;0.57;;
14030;SDS011;7090;49.436;8.490;2022-11-12T00:02:47;0.30;;;0.30;;
14030;SDS011;7090;49.436;8.490;2022-11-12T00:05:12;0.33;;;0.33;;
14030;SDS011;7090;49.436;8.490;2022-11-12T00:07:38;1.83;;;1.73;;
14030;SDS011;7090;49.436;8.490;2022-11-12T00:10:03;0.40;;;0.40;;
14030;SDS011;7090;49.436;8.490;2022-11-12T00:12:30;0.33;;;0.33;;
14030;SDS011;7090;49.436;8.490;2022-11-12T00:14:55;4.20;;;3.83;;
14030;SDS011;7090;49.436;8.490;2022-11-12T00:17:21;5.70;;;4.40;;
14030;SDS011;7090;49.436;8.490;2022-11-12T00:19:47;2.50;;;2.30;;
14030;SDS011;7090;49.436;8.490;2022-11-12T00:22:13;2.43;;;1.87;;
14030;SDS011;7090;49.436;8.490;2022-11-12T00:24:38;7.27;;;2.87;;
14030;SDS011;7090;49.436;8.490;2022-11-12T00:27:04;4.20;;;3.90;;
14030;SDS011;7090;49.436;8.490;2022-11-12T00:29:29;0.30;;;0.30;;
14030;SDS011;7090;49.436;8.490;2022-11-12T00:31:55;0.97;;;0.97;;
14030;SDS011;7090;49.436;8.490;2022-11-12T00:34:20;3.13;;;2.83;;
14030;SDS011;7090;49.436;8.490;2022-11-12T00:36:46;0.50;;;0.50;;
14030;SDS011;7090;49.436;8.490;2022-11-12T00:39:12;3.37;;;1.67;;
14030;SDS011;7090;49.436;8.490;2022-11-12T00:41:37;1.50;;;1.40;;
14030;SDS011;7090;49.436;8.490;2022-11-12T00:44:03;0.40;;;0.40;;
14030;SDS011;7090;49.436;8.490;2022-11-12T00:46:28;3.87;;;3.57;;
14030;SDS011;7090;49.436;8.490;2022-11-12T00:48:54;2.87;;;2.77;;
14030;SDS011;7090;49.436;8.490;2022-11-12T00:51:20;8.40;;;3.50;;
14030;SDS011;7090;49.436;8.490;2022-11-12T00:53:46;5.73;;;5.00;;
14030;SDS011;7090;49.436;8.490;2022-11-12T00:56:13;5.70;;;3.60;;
14030;SDS011;7090;49.436;8.490;2022-11-12T00:58:39;4.77;;;3.27;;
14030;SDS011;7090;49.436;8.490;2022-11-12T01:01:10;3.90;;;1.67;;
14030;SDS011;7090;49.436;8.490;2022-11-12T01:03:37;0.40;;;0.40;;
14030;SDS011;7090;49.436;8.490;2022-11-12T01:06:10;0.60;;;0.60;;
14030;SDS011;7090;49.436;8.490;2022-11-12T01:08:38;7.33;;;4.20;;
14030;SDS011;7090;49.436;8.490;2022-11-12T01:11:05;2.60;;;2.40;;
14030;SDS011;7090;49.436;8.490;2022-11-12T01:13:39;0.87;;;0.87;;
14030;SDS011;7090;49.436;8.490;2022-11-12T01:16:07;1.47;;;1.37;;
14030;SDS011;7090;49.436;8.490;2022-11-12T01:18:35;0.60;;;0.60;;
14030;SDS011;7090;49.436;8.490;2022-11-12T01:21:02;4.40;;;4.00;;
14030;SDS011;7090;49.436;8.490;2022-11-12T01:23:30;3.20;;;3.00;;
14030;SDS011;7090;49.436;8.490;2022-11-12T01:26:04;0.77;;;0.77;;
14030;SDS011;7090;49.436;8.490;2022-11-12T01:28:34;2.23;;;2.07;;
14030;SDS011;7090;49.436;8.490;2022-11-12T01:31:10;0.60;;;0.60;;
14030;SDS011;7090;49.436;8.490;2022-11-12T01:33:43;3.23;;;2.20;;
14030;SDS011;7090;49.436;8.490;2022-11-12T01:36:11;0.60;;;0.60;;
14030;SDS011;7090;49.436;8.490;2022-11-12T01:38:38;1.33;;;1.33;;
14030;SDS011;7090;49.436;8.490;2022-11-12T01:41:06;4.80;;;2.10;;
14030;SDS011;7090;49.436;8.490;2022-11-12T01:43:32;0.60;;;0.60;;
14030;SDS011;7090;49.436;8.490;2022-11-12T01:45:58;0.40;;;0.40;;
14030;SDS011;7090;49.436;8.490;2022-11-12T01:48:37;0.43;;;0.43;;
14030;SDS011;7090;49.436;8.490;2022-11-12T01:51:08;0.43;;;0.43;;
14030;SDS011;7090;49.436;8.490;2022-11-12T01:53:38;2.43;;;1.27;;
14030;SDS011;7090;49.436;8.490;2022-11-12T01:56:08;0.50;;;0.50;;
14030;SDS011;7090;49.436;8.490;2022-11-12T01:58:35;1.13;;;1.03;;
14030;SDS011;7090;49.436;8.490;2022-11-12T02:01:03;0.50;;;0.50;;
14030;SDS011;7090;49.436;8.490;2022-11-12T02:03:29;0.50;;;0.50;;
14030;SDS011;7090;49.436;8.490;2022-11-12T02:05:57;0.67;;;0.67;;
14030;SDS011;7090;49.436;8.490;2022-11-12T02:08:27;0.50;;;0.50;;
14030;SDS011;7090;49.436;8.490;2022-11-12T02:10:53;0.60;;;0.60;;
14030;SDS011;7090;49.436;8.490;2022-11-12T02:13:19;0.50;;;0.50;;
14030;SDS011;7090;49.436;8.490;2022-11-12T02:16:04;0.60;;;0.60;;
14030;SDS011;7090;49.436;8.490;2022-11-12T02:18:31;0.60;;;0.60;;
14030;SDS011;7090;49.436;8.490;2022-11-12T02:20:58;0.60;;;0.60;;
14030;SDS011;7090;49.436;8.490;2022-11-12T02:23:28;2.33;;;2.13;;
14030;SDS011;7090;49.436;8.490;2022-11-12T02:25:56;3.37;;;3.10;;
14030;SDS011;7090;49.436;8.490;2022-11-12T02:28:24;1.00;;;1.00;;
14030;SDS011;7090;49.436;8.490;2022-11-12T02:30:50;0.67;;;0.67;;
14030;SDS011;7090;49.436;8.490;2022-11-12T02:33:16;1.43;;;1.43;;
14030;SDS011;7090;49.436;8.490;2022-11-12T02:35:41;6.57;;;2.77;;
14030;SDS011;7090;49.436;8.490;2022-11-12T02:38:07;3.10;;;2.40;;
14030;SDS011;7090;49.436;8.490;2022-11-12T02:40:33;2.97;;;2.77;;
14030;SDS011;7090;49.436;8.490;2022-11-12T02:42:59;2.77;;;2.57;;
14030;SDS011;7090;49.436;8.490;2022-11-12T02:45:25;3.13;;;2.23;;
14030;SDS011;7090;49.436;8.490;2022-11-12T02:47:51;4.83;;;3.57;;
14030;SDS011;7090;49.436;8.490;2022-11-12T02:50:16;2.67;;;2.47;;
14030;SDS011;7090;49.436;8.490;2022-11-12T02:52:42;7.93;;;2.03;;
14030;SDS011;7090;49.436;8.490;2022-11-12T02:55:09;3.47;;;3.13;;
14030;SDS011;7090;49.436;8.490;2022-11-12T02:57:36;2.30;;;2.20;;
14030;SDS011;7090;49.436;8.490;2022-11-12T03:00:04;1.43;;;1.40;;
14030;SDS011;7090;49.436;8.490;2022-11-12T03:02:31;4.53;;;2.93;;
14030;SDS011;7090;49.436;8.490;2022-11-12T03:04:57;0.80;;;0.80;;
14030;SDS011;7090;49.436;8.490;2022-11-12T03:07:22;1.50;;;1.50;;
14030;SDS011;7090;49.436;8.490;2022-11-12T03:09:48;8.90;;;4.63;;
14030;SDS011;7090;49.436;8.490;2022-11-12T03:12:13;12.50;;;5.53;;
14030;SDS011;7090;49.436;8.490;2022-11-12T03:14:39;0.90;;;0.90;;
14030;SDS011;7090;49.436;8.490;2022-11-12T03:17:05;2.60;;;2.33;;
14030;SDS011;7090;49.436;8.490;2022-11-12T03:19:30;2.67;;;2.47;;
14030;SDS011;7090;49.436;8.490;2022-11-12T03:21:56;1.20;;;1.20;;
14030;SDS011;7090;49.436;8.490;2022-11-12T03:24:21;3.73;;;3.53;;
14030;SDS011;7090;49.436;8.490;2022-11-12T03:26:47;1.10;;;1.10;;
14030;SDS011;7090;49.436;8.490;2022-11-12T03:29:13;0.90;;;0.90;;
14030;SDS011;7090;49.436;8.490;2022-11-12T03:31:38;1.33;;;1.33;;
14030;SDS011;7090;49.436;8.490;2022-11-12T03:34:04;3.40;;;3.23;;
14030;SDS011;7090;49.436;8.490;2022-11-12T03:36:29;1.27;;;1.27;;
14030;SDS011;7090;49.436;8.490;2022-11-12T03:38:55;2.23;;;2.03;;
14030;SDS011;7090;49.436;8.490;2022-11-12T03:41:21;4.33;;;2.47;;
14030;SDS011;7090;49.436;8.490;2022-11-12T03:43:46;1.47;;;1.47;;
14030;SDS011;7090;49.436;8.490;2022-11-12T03:46:12;4.47;;;3.83;;
14030;SDS011;7090;49.436;8.490;2022-11-12T03:48:37;1.20;;;1.20;;
14030;SDS011;7090;49.436;8.490;2022-11-12T03:51:03;2.90;;;2.30;;
14030;SDS011;7090;49.436;8.490;2022-11-12T03:53:29;5.70;;;4.13;;
14030;SDS011;7090;49.436;8.490;2022-11-12T03:55:54;2.17;;;2.07;;
14030;SDS011;7090;49.436;8.490;2022-11-12T03:58:20;1.50;;;1.50;;
14030;SDS011;7090;49.436;8.490;2022-11-12T04:00:45;2.50;;;2.40;;
14030;SDS011;7090;49.436;8.490;2022-11-12T04:03:11;1.83;;;1.73;;
14030;SDS011;7090;49.436;8.490;2022-11-12T04:05:36;1.10;;;1.10;;
14030;SDS011;7090;49.436;8.490;2022-11-12T04:08:21;0.97;;;0.97;;
14030;SDS011;7090;49.436;8.490;2022-11-12T04:11:00;1.70;;;1.57;;
14030;SDS011;7090;49.436;8.490;2022-11-12T04:13:27;1.80;;;1.80;;
14030;SDS011;7090;49.436;8.490;2022-11-12T04:15:53;2.93;;;2.83;;
14030;SDS011;7090;49.436;8.490;2022-11-12T04:18:41;3.63;;;3.53;;
14030;SDS011;7090;49.436;8.490;2022-11-12T04:21:30;4.20;;;3.43;;
14030;SDS011;7090;49.436;8.490;2022-11-12T04:24:40;5.27;;;4.17;;
14030;SDS011;7090;49.436;8.490;2022-11-12T04:27:27;3.80;;;3.13;;
14030;SDS011;7090;49.436;8.490;2022-11-12T04:29:54;6.23;;;4.13;;
14030;SDS011;7090;49.436;8.490;2022-11-12T04:32:45;1.10;;;1.10;;
14030;SDS011;7090;49.436;8.490;2022-11-12T04:35:13;1.10;;;1.10;;
14030;SDS011;7090;49.436;8.490;2022-11-12T04:37:39;0.97;;;0.97;;
14030;SDS011;7090;49.436;8.490;2022-11-12T04:40:18;6.53;;;2.33;;
14030;SDS011;7090;49.436;8.490;2022-11-12T04:43:06;1.50;;;1.43;;
14030;SDS011;7090;49.436;8.490;2022-11-12T04:45:52;1.03;;;1.03;;
14030;SDS011;7090;49.436;8.490;2022-11-12T04:48:19;2.73;;;2.20;;
14030;SDS011;7090;49.436;8.490;2022-11-12T04:50:49;1.23;;;1.23;;
14030;SDS011;7090;49.436;8.490;2022-11-12T04:53:21;2.80;;;2.60;;
14030;SDS011;7090;49.436;8.490;2022-11-12T04:55:50;4.00;;;3.60;;
14030;SDS011;7090;49.436;8.490;2022-11-12T04:58:17;1.23;;;1.23;;
14030;SDS011;7090;49.436;8.490;2022-11-12T05:00:43;2.33;;;2.23;;
14030;SDS011;7090;49.436;8.490;2022-11-12T05:03:09;2.00;;;1.90;;
14030;SDS011;7090;49.436;8.490;2022-11-12T05:05:35;4.13;;;3.57;;
14030;SDS011;7090;49.436;8.490;2022-11-12T05:08:01;12.70;;;7.40;;
14030;SDS011;7090;49.436;8.490;2022-11-12T05:10:27;23.40;;;10.77;;
14030;SDS011;7090;49.436;8.490;2022-11-12T05:12:54;0.80;;;0.80;;
14030;SDS011;7090;49.436;8.490;2022-11-12T05:15:19;7.53;;;5.37;;
14030;SDS011;7090;49.436;8.490;2022-11-12T05:17:45;1.93;;;1.83;;
14030;SDS011;7090;49.436;8.490;2022-11-12T05:20:11;0.87;;;0.87;;
14030;SDS011;7090;49.436;8.490;2022-11-12T05:22:37;17.37;;;6.73;;
14030;SDS011;7090;49.436;8.490;2022-11-12T05:25:03;1.07;;;1.03;;
14030;SDS011;7090;49.436;8.490;2022-11-12T05:27:30;16.20;;;7.00;;
14030;SDS011;7090;49.436;8.490;2022-11-12T05:29:55;3.43;;;3.17;;
14030;SDS011;7090;49.436;8.490;2022-11-12T05:32:21;2.60;;;2.40;;
14030;SDS011;7090;49.436;8.490;2022-11-12T05:34:47;0.77;;;0.77;;
14030;SDS011;7090;49.436;8.490;2022-11-12T05:37:12;2.13;;;2.03;;
14030;SDS011;7090;49.436;8.490;2022-11-12T05:39:39;0.70;;;0.70;;
14030;SDS011;7090;49.436;8.490;2022-11-12T05:42:05;0.80;;;0.80;;
14030;SDS011;7090;49.436;8.490;2022-11-12T05:44:30;6.40;;;3.33;;
14030;SDS011;7090;49.436;8.490;2022-11-12T05:46:56;1.50;;;1.40;;
14030;SDS011;7090;49.436;8.490;2022-11-12T05:49:22;10.23;;;5.53;;
14030;SDS011;7090;49.436;8.490;2022-11-12T05:51:47;1.53;;;1.53;;
14030;SDS011;7090;49.436;8.490;2022-11-12T05:54:13;2.87;;;2.67;;
14030;SDS011;7090;49.436;8.490;2022-11-12T05:56:39;24.47;;;10.20;;
14030;SDS011;7090;49.436;8.490;2022-11-12T05:59:06;20.67;;;8.63;;
14030;SDS011;7090;49.436;8.490;2022-11-12T06:01:33;9.20;;;6.20;;
14030;SDS011;7090;49.436;8.490;2022-11-12T06:04:02;19.90;;;9.23;;
14030;SDS011;7090;49.436;8.490;2022-11-12T06:06:28;16.63;;;7.10;;
14030;SDS011;7090;49.436;8.490;2022-11-12T06:08:54;9.07;;;4.77;;
14030;SDS011;7090;49.436;8.490;2022-11-12T06:11:19;2.87;;;2.77;;
14030;SDS011;7090;49.436;8.490;2022-11-12T06:13:45;1.37;;;1.37;;
14030;SDS011;7090;49.436;8.490;2022-11-12T06:16:11;1.90;;;1.40;;
14030;SDS011;7090;49.436;8.490;2022-11-12T06:18:37;1.73;;;1.67;;
14030;SDS011;7090;49.436;8.490;2022-11-12T06:21:09;0.60;;;0.60;;
14030;SDS011;7090;49.436;8.490;2022-11-12T06:23:51;0.90;;;0.90;;
14030;SDS011;7090;49.436;8.490;2022-11-12T06:26:19;1.10;;;1.10;;
14030;SDS011;7090;49.436;8.490;2022-11-12T06:28:46;0.50;;;0.50;;
14030;SDS011;7090;49.436;8.490;2022-11-12T06:31:12;1.00;;;1.00;;
14030;SDS011;7090;49.436;8.490;2022-11-12T06:33:38;0.60;;;0.60;;
14030;SDS011;7090;49.436;8.490;2022-11-12T06:36:04;1.03;;;1.03;;
14030;SDS011;7090;49.436;8.490;2022-11-12T06:38:31;1.13;;;1.13;;
14030;SDS011;7090;49.436;8.490;2022-11-12T06:40:58;0.87;;;0.87;;
14030;SDS011;7090;49.436;8.490;2022-11-12T06:43:24;0.60;;;0.60;;
14030;SDS011;7090;49.436;8.490;2022-11-12T06:45:51;0.50;;;0.50;;
14030;SDS011;7090;49.436;8.490;2022-11-12T06:48:17;0.57;;;0.57;;
14030;SDS011;7090;49.436;8.490;2022-11-12T06:50:42;0.50;;;0.50;;
14030;SDS011;7090;49.436;8.490;2022-11-12T06:53:08;6.97;;;6.43;;
14030;SDS011;7090;49.436;8.490;2022-11-12T06:55:34;0.57;;;0.57;;
14030;SDS011;7090;49.436;8.490;2022-11-12T06:57:59;0.60;;;0.60;;
14030;SDS011;7090;49.436;8.490;2022-11-12T07:00:25;0.87;;;0.87;;
14030;SDS011;7090;49.436;8.490;2022-11-12T07:02:50;1.23;;;1.23;;
14030;SDS011;7090;49.436;8.490;2022-11-12T07:05:16;1.77;;;1.67;;
14030;SDS011;7090;49.436;8.490;2022-11-12T07:07:41;1.10;;;1.10;;
14030;SDS011;7090;49.436;8.490;2022-11-12T07:10:07;0.90;;;0.90;;
14030;SDS011;7090;49.436;8.490;2022-11-12T07:12:33;0.63;;;0.63;;
14030;SDS011;7090;49.436;8.490;2022-11-12T07:14:59;0.73;;;0.73;;
14030;SDS011;7090;49.436;8.490;2022-11-12T07:17:24;0.80;;;0.80;;
14030;SDS011;7090;49.436;8.490;2022-11-12T07:19:50;1.53;;;1.43;;
14030;SDS011;7090;49.436;8.490;2022-11-12T07:22:16;3.33;;;3.10;;
14030;SDS011;7090;49.436;8.490;2022-11-12T07:24:41;1.17;;;1.17;;
14030;SDS011;7090;49.436;8.490;2022-11-12T07:27:07;0.97;;;0.97;;
14030;SDS011;7090;49.436;8.490;2022-11-12T07:29:32;0.90;;;0.90;;
14030;SDS011;7090;49.436;8.490;2022-11-12T07:31:58;1.10;;;1.10;;
14030;SDS011;7090;49.436;8.490;2022-11-12T07:34:23;1.00;;;1.00;;
14030;SDS011;7090;49.436;8.490;2022-11-12T07:36:49;1.00;;;1.00;;
14030;SDS011;7090;49.436;8.490;2022-11-12T07:39:16;1.10;;;1.10;;
14030;SDS011;7090;49.436;8.490;2022-11-12T07:41:42;1.10;;;1.10;;
14030;SDS011;7090;49.436;8.490;2022-11-12T07:44:07;1.40;;;1.40;;
14030;SDS011;7090;49.436;8.490;2022-11-12T07:46:33;2.77;;;2.67;;
14030;SDS011;7090;49.436;8.490;2022-11-12T07:48:59;1.20;;;1.20;;
14030;SDS011;7090;49.436;8.490;2022-11-12T07:51:25;3.90;;;3.23;;
14030;SDS011;7090;49.436;8.490;2022-11-12T07:53:52;1.53;;;1.53;;
14030;SDS011;7090;49.436;8.490;2022-11-12T07:56:20;1.70;;;1.70;;
14030;SDS011;7090;49.436;8.490;2022-11-12T07:58:48;1.90;;;1.90;;
14030;SDS011;7090;49.436;8.490;2022-11-12T08:01:24;2.27;;;2.17;;
14030;SDS011;7090;49.436;8.490;2022-11-12T08:03:55;1.30;;;1.30;;
14030;SDS011;7090;49.436;8.490;2022-11-12T08:06:22;2.57;;;2.37;;
14030;SDS011;7090;49.436;8.490;2022-11-12T08:08:50;3.30;;;2.70;;
14030;SDS011;7090;49.436;8.490;2022-11-12T08:11:17;2.50;;;2.40;;
14030;SDS011;7090;49.436;8.490;2022-11-12T08:13:42;3.93;;;3.60;;
14030;SDS011;7090;49.436;8.490;2022-11-12T08:16:08;1.50;;;1.50;;
14030;SDS011;7090;49.436;8.490;2022-11-12T08:18:34;1.30;;;1.30;;
14030;SDS011;7090;49.436;8.490;2022-11-12T08:21:00;1.30;;;1.30;;
14030;SDS011;7090;49.436;8.490;2022-11-12T08:23:26;1.43;;;1.43;;
14030;SDS011;7090;49.436;8.490;2022-11-12T08:25:56;1.30;;;1.30;;
14030;SDS011;7090;49.436;8.490;2022-11-12T08:28:32;2.97;;;2.87;;
14030;SDS011;7090;49.436;8.490;2022-11-12T08:31:07;1.50;;;1.50;;
14030;SDS011;7090;49.436;8.490;2022-11-12T08:33:38;1.30;;;1.30;;
14030;SDS011;7090;49.436;8.490;2022-11-12T08:36:04;3.47;;;3.27;;
14030;SDS011;7090;49.436;8.490;2022-11-12T08:38:32;1.53;;;1.50;;
14030;SDS011;7090;49.436;8.490;2022-11-12T08:41:01;1.70;;;1.70;;
14030;SDS011;7090;49.436;8.490;2022-11-12T08:43:28;2.00;;;1.90;;
14030;SDS011;7090;49.436;8.490;2022-11-12T08:45:56;3.53;;;3.13;;
14030;SDS011;7090;49.436;8.490;2022-11-12T08:48:22;1.60;;;1.60;;
14030;SDS011;7090;49.436;8.490;2022-11-12T08:50:48;4.33;;;3.93;;
14030;SDS011;7090;49.436;8.490;2022-11-12T08:53:13;5.30;;;4.80;;
14030;SDS011;7090;49.436;8.490;2022-11-12T08:55:39;1.47;;;1.47;;
14030;SDS011;7090;49.436;8.490;2022-11-12T08:58:05;2.17;;;2.07;;
14030;SDS011;7090;49.436;8.490;2022-11-12T09:00:32;7.90;;;6.03;;
14030;SDS011;7090;49.436;8.490;2022-11-12T09:03:01;3.57;;;3.40;;
14030;SDS011;7090;49.436;8.490;2022-11-12T09:05:31;1.30;;;1.30;;
14030;SDS011;7090;49.436;8.490;2022-11-12T09:08:03;2.00;;;1.97;;
14030;SDS011;7090;49.436;8.490;2022-11-12T09:10:34;1.63;;;1.53;;
14030;SDS011;7090;49.436;8.490;2022-11-12T09:13:00;1.60;;;1.53;;
14030;SDS011;7090;49.436;8.490;2022-11-12T09:15:27;3.50;;;2.50;;
14030;SDS011;7090;49.436;8.490;2022-11-12T09:17:54;2.53;;;2.33;;
14030;SDS011;7090;49.436;8.490;2022-11-12T09:20:20;2.30;;;2.07;;
14030;SDS011;7090;49.436;8.490;2022-11-12T09:22:46;2.20;;;2.10;;
14030;SDS011;7090;49.436;8.490;2022-11-12T09:25:12;2.00;;;1.87;;
14030;SDS011;7090;49.436;8.490;2022-11-12T09:27:37;3.23;;;3.07;;
14030;SDS011;7090;49.436;8.490;2022-11-12T09:30:03;2.23;;;2.10;;
14030;SDS011;7090;49.436;8.490;2022-11-12T09:32:30;2.53;;;2.33;;
14030;SDS011;7090;49.436;8.490;2022-11-12T09:34:56;3.70;;;2.43;;
14030;SDS011;7090;49.436;8.490;2022-11-12T09:37:22;1.30;;;1.30;;
14030;SDS011;7090;49.436;8.490;2022-11-12T09:39:47;2.33;;;2.23;;
14030;SDS011;7090;49.436;8.490;2022-11-12T09:42:14;2.03;;;2.00;;
14030;SDS011;7090;49.436;8.490;2022-11-12T09:44:43;1.70;;;1.70;;
14030;SDS011;7090;49.436;8.490;2022-11-12T09:47:18;1.50;;;1.50;;
14030;SDS011;7090;49.436;8.490;2022-11-12T09:49:49;2.77;;;2.57;;
14030;SDS011;7090;49.436;8.490;2022-11-12T09:52:27;1.63;;;1.63;;
14030;SDS011;7090;49.436;8.490;2022-11-12T09:55:08;1.60;;;1.60;;
14030;SDS011;7090;49.436;8.490;2022-11-12T09:57:41;3.10;;;3.00;;
14030;SDS011;7090;49.436;8.490;2022-11-12T10:00:15;2.03;;;1.93;;
14030;SDS011;7090;49.436;8.490;2022-11-12T10:02:44;1.50;;;1.50;;
14030;SDS011;7090;49.436;8.490;2022-11-12T10:10:53;2.83;;;2.63;;
14030;SDS011;7090;49.436;8.490;2022-11-12T10:24:10;4.17;;;3.83;;
14030;SDS011;7090;49.436;8.490;2022-11-12T10:26:36;2.57;;;2.47;;
14030;SDS011;7090;49.436;8.490;2022-11-12T10:31:35;5.87;;;2.70;;
14030;SDS011;7090;49.436;8.490;2022-11-12T10:34:22;4.40;;;4.10;;
14030;SDS011;7090;49.436;8.490;2022-11-12T10:36:48;2.00;;;2.00;;
14030;SDS011;7090;49.436;8.490;2022-11-12T10:39:41;4.37;;;4.07;;
14030;SDS011;7090;49.436;8.490;2022-11-12T10:42:12;3.37;;;3.00;;
14030;SDS011;7090;49.436;8.490;2022-11-12T10:44:39;2.40;;;2.33;;
14030;SDS011;7090;49.436;8.490;2022-11-12T10:49:43;4.13;;;3.93;;
14030;SDS011;7090;49.436;8.490;2022-11-12T10:52:23;2.10;;;2.10;;
14030;SDS011;7090;49.436;8.490;2022-11-12T10:54:49;5.32;;;5.03;;
14030;SDS011;7090;49.436;8.490;2022-11-12T10:57:42;3.33;;;3.23;;
14030;SDS011;7090;49.436;8.490;2022-11-12T11:02:36;2.43;;;2.33;;
14030;SDS011;7090;49.436;8.490;2022-11-12T11:05:25;3.60;;;3.50;;
14030;SDS011;7090;49.436;8.490;2022-11-12T11:07:51;3.13;;;3.00;;
14030;SDS011;7090;49.436;8.490;2022-11-12T11:10:31;2.30;;;2.30;;
14030;SDS011;7090;49.436;8.490;2022-11-12T11:15:57;3.37;;;3.17;;
14030;SDS011;7090;49.436;8.490;2022-11-12T11:18:28;2.50;;;2.40;;
14030;SDS011;7090;49.436;8.490;2022-11-12T11:23:47;4.07;;;3.77;;
14030;SDS011;7090;49.436;8.490;2022-11-12T11:26:36;2.90;;;2.80;;
14030;SDS011;7090;49.436;8.490;2022-11-12T11:29:17;8.20;;;4.75;;
14030;SDS011;7090;49.436;8.490;2022-11-12T11:38:04;3.33;;;3.23;;
14030;SDS011;7090;49.436;8.490;2022-11-12T11:43:41;5.17;;;4.97;;
14030;SDS011;7090;49.436;8.490;2022-11-12T11:54:15;4.27;;;4.07;;
14030;SDS011;7090;49.436;8.490;2022-11-12T11:56:43;3.37;;;3.27;;
14030;SDS011;7090;49.436;8.490;2022-11-12T12:04:44;3.97;;;3.87;;
14030;SDS011;7090;49.436;8.490;2022-11-12T12:10:02;3.57;;;3.47;;
14030;SDS011;7090;49.436;8.490;2022-11-12T12:12:44;9.50;;;8.77;;
14030;SDS011;7090;49.436;8.490;2022-11-12T12:21:11;8.20;;;7.57;;
14030;SDS011;7090;49.436;8.490;2022-11-12T12:23:57;5.77;;;5.53;;
14030;SDS011;7090;49.436;8.490;2022-11-12T12:34:37;6.28;;;5.88;;
14030;SDS011;7090;49.436;8.490;2022-11-12T12:40:00;5.00;;;4.80;;
14030;SDS011;7090;49.436;8.490;2022-11-12T12:42:39;16.27;;;10.27;;
14030;SDS011;7090;49.436;8.490;2022-11-12T12:47:47;6.00;;;5.80;;
14030;SDS011;7090;49.436;8.490;2022-11-12T12:50:15;5.20;;;5.00;;
14030;SDS011;7090;49.436;8.490;2022-11-12T12:55:49;5.63;;;5.43;;
14030;SDS011;7090;49.436;8.490;2022-11-12T12:58:18;7.07;;;6.77;;
14030;SDS011;7090;49.436;8.490;2022-11-12T13:00:46;9.63;;;8.77;;
14030;SDS011;7090;49.436;8.490;2022-11-12T13:03:42;4.53;;;4.43;;
14030;SDS011;7090;49.436;8.490;2022-11-12T13:06:05;4.40;;;4.30;;
14030;SDS011;7090;49.436;8.490;2022-11-12T13:08:33;6.23;;;5.93;;
14030;SDS011;7090;49.436;8.490;2022-11-12T13:11:00;6.07;;;5.87;;
14030;SDS011;7090;49.436;8.490;2022-11-12T13:13:27;8.00;;;7.43;;
14030;SDS011;7090;49.436;8.490;2022-11-12T13:15:55;7.05;;;6.43;;
14030;SDS011;7090;49.436;8.490;2022-11-12T13:21:09;6.97;;;6.43;;
14030;SDS011;7090;49.436;8.490;2022-11-12T13:31:45;5.37;;;5.17;;
14030;SDS011;7090;49.436;8.490;2022-11-12T13:34:12;5.50;;;5.30;;
14030;SDS011;7090;49.436;8.490;2022-11-12T13:36:54;9.87;;;8.60;;
14030;SDS011;7090;49.436;8.490;2022-11-12T13:39:22;4.63;;;4.53;;
14030;SDS011;7090;49.436;8.490;2022-11-12T13:41:55;5.57;;;5.33;;
14030;SDS011;7090;49.436;8.490;2022-11-12T13:44:41;7.47;;;7.03;;
14030;SDS011;7090;49.436;8.490;2022-11-12T13:47:15;6.50;;;6.27;;
14030;SDS011;7090;49.436;8.490;2022-11-12T13:49:44;9.07;;;8.47;;
14030;SDS011;7090;49.436;8.490;2022-11-12T13:52:12;5.70;;;5.43;;
14030;SDS011;7090;49.436;8.490;2022-11-12T13:54:40;6.17;;;5.93;;
14030;SDS011;7090;49.436;8.490;2022-11-12T13:59:45;4.73;;;4.63;;
14030;SDS011;7090;49.436;8.490;2022-11-12T14:02:18;6.77;;;6.43;;
14030;SDS011;7090;49.436;8.490;2022-11-12T14:04:46;10.47;;;9.80;;
14030;SDS011;7090;49.436;8.490;2022-11-12T14:15:22;5.28;;;5.07;;
14030;SDS011;7090;49.436;8.490;2022-11-12T14:18:16;6.30;;;5.90;;
14030;SDS011;7090;49.436;8.490;2022-11-12T14:20:55;7.10;;;6.80;;
14030;SDS011;7090;49.436;8.490;2022-11-12T14:23:21;5.30;;;5.10;;
14030;SDS011;7090;49.436;8.490;2022-11-12T14:25:52;5.00;;;4.80;;
14030;SDS011;7090;49.436;8.490;2022-11-12T14:28:29;6.30;;;5.90;;
14030;SDS011;7090;49.436;8.490;2022-11-12T14:30:56;4.20;;;4.10;;
14030;SDS011;7090;49.436;8.490;2022-11-12T14:33:24;4.70;;;4.60;;
14030;SDS011;7090;49.436;8.490;2022-11-12T14:35:52;6.60;;;6.03;;
14030;SDS011;7090;49.436;8.490;2022-11-12T14:38:24;5.30;;;5.10;;
14030;SDS011;7090;49.436;8.490;2022-11-12T14:40:55;12.23;;;6.73;;
14030;SDS011;7090;49.436;8.490;2022-11-12T14:46:18;5.50;;;5.30;;
14030;SDS011;7090;49.436;8.490;2022-11-12T14:48:50;4.87;;;4.67;;
14030;SDS011;7090;49.436;8.490;2022-11-12T14:51:16;6.20;;;6.00;;
14030;SDS011;7090;49.436;8.490;2022-11-12T14:53:47;9.70;;;7.93;;
14030;SDS011;7090;49.436;8.490;2022-11-12T14:56:22;5.00;;;4.80;;
14030;SDS011;7090;49.436;8.490;2022-11-12T14:59:17;4.10;;;4.00;;
14030;SDS011;7090;49.436;8.490;2022-11-12T15:04:42;4.27;;;4.17;;
14030;SDS011;7090;49.436;8.490;2022-11-12T15:07:23;5.37;;;5.17;;
14030;SDS011;7090;49.436;8.490;2022-11-12T15:09:52;4.00;;;3.90;;
14030;SDS011;7090;49.436;8.490;2022-11-12T15:12:29;4.27;;;4.17;;
14030;SDS011;7090;49.436;8.490;2022-11-12T15:15:16;4.67;;;4.50;;
14030;SDS011;7090;49.436;8.490;2022-11-12T15:17:54;3.70;;;3.60;;
14030;SDS011;7090;49.436;8.490;2022-11-12T15:20:24;3.80;;;3.70;;
14030;SDS011;7090;49.436;8.490;2022-11-12T15:22:51;5.60;;;5.20;;
14030;SDS011;7090;49.436;8.490;2022-11-12T15:25:30;5.72;;;5.43;;
14030;SDS011;7090;49.436;8.490;2022-11-12T15:28:11;4.90;;;4.73;;
14030;SDS011;7090;49.436;8.490;2022-11-12T15:33:40;4.70;;;4.60;;
14030;SDS011;7090;49.436;8.490;2022-11-12T15:36:15;4.33;;;4.23;;
14030;SDS011;7090;49.436;8.490;2022-11-12T15:38:49;5.60;;;5.30;;
14030;SDS011;7090;49.436;8.490;2022-11-12T15:41:26;4.37;;;4.27;;
14030;SDS011;7090;49.436;8.490;2022-11-12T15:43:53;4.83;;;4.67;;
14030;SDS011;7090;49.436;8.490;2022-11-12T15:46:19;4.27;;;4.17;;
14030;SDS011;7090;49.436;8.490;2022-11-12T15:48:45;6.17;;;5.90;;
14030;SDS011;7090;49.436;8.490;2022-11-12T15:51:11;6.07;;;5.77;;
14030;SDS011;7090;49.436;8.490;2022-11-12T15:53:38;5.10;;;4.90;;
14030;SDS011;7090;49.436;8.490;2022-11-12T15:56:03;6.33;;;5.93;;
14030;SDS011;7090;49.436;8.490;2022-11-12T15:58:33;5.63;;;5.33;;
14030;SDS011;7090;49.436;8.490;2022-11-12T16:01:02;6.60;;;6.10;;
14030;SDS011;7090;49.436;8.490;2022-11-12T16:03:29;6.53;;;6.10;;
14030;SDS011;7090;49.436;8.490;2022-11-12T16:05:55;5.10;;;4.90;;
14030;SDS011;7090;49.436;8.490;2022-11-12T16:08:20;14.40;;;7.97;;
14030;SDS011;7090;49.436;8.490;2022-11-12T16:10:46;5.13;;;4.83;;
14030;SDS011;7090;49.436;8.490;2022-11-12T16:13:14;7.10;;;6.60;;
14030;SDS011;7090;49.436;8.490;2022-11-12T16:15:43;4.00;;;3.80;;
14030;SDS011;7090;49.436;8.490;2022-11-12T16:18:09;5.10;;;4.80;;
14030;SDS011;7090;49.436;8.490;2022-11-12T16:20:36;4.67;;;4.13;;
14030;SDS011;7090;49.436;8.490;2022-11-12T16:23:02;4.50;;;4.20;;
14030;SDS011;7090;49.436;8.490;2022-11-12T16:25:29;3.07;;;2.97;;
14030;SDS011;7090;49.436;8.490;2022-11-12T16:27:57;3.30;;;3.13;;
14030;SDS011;7090;49.436;8.490;2022-11-12T16:30:25;4.20;;;4.00;;
14030;SDS011;7090;49.436;8.490;2022-11-12T16:32:55;6.03;;;5.50;;
14030;SDS011;7090;49.436;8.490;2022-11-12T16:35:21;9.03;;;6.20;;
14030;SDS011;7090;49.436;8.490;2022-11-12T16:37:47;3.47;;;3.37;;
14030;SDS011;7090;49.436;8.490;2022-11-12T16:40:17;3.77;;;3.67;;
14030;SDS011;7090;49.436;8.490;2022-11-12T16:42:48;2.87;;;2.77;;
14030;SDS011;7090;49.436;8.490;2022-11-12T16:45:18;4.43;;;4.10;;
14030;SDS011;7090;49.436;8.490;2022-11-12T16:47:52;4.60;;;4.40;;
14030;SDS011;7090;49.436;8.490;2022-11-12T16:50:21;5.68;;;4.75;;
14030;SDS011;7090;49.436;8.490;2022-11-12T16:52:48;2.70;;;2.60;;
14030;SDS011;7090;49.436;8.490;2022-11-12T16:55:14;4.37;;;3.97;;
14030;SDS011;7090;49.436;8.490;2022-11-12T16:57:40;3.33;;;3.23;;
14030;SDS011;7090;49.436;8.490;2022-11-12T17:00:10;2.20;;;2.20;;